createdAt,value
2022-08-26T00:00:53.369Z,1.25
2022-08-26T00:03:22.030Z,1.15
2022-08-26T00:05:50.957Z,0.80
2022-08-26T00:08:20.680Z,1.40
2022-08-26T00:10:49.122Z,1.00
2022-08-26T00:13:19.539Z,0.70
2022-08-26T00:15:51.341Z,1.20
2022-08-26T00:18:22.663Z,0.98
2022-08-26T00:20:51.705Z,0.68
2022-08-26T00:23:20.436Z,1.30
2022-08-26T00:25:55.198Z,1.40
2022-08-26T00:28:26.477Z,0.88
2022-08-26T00:30:56.223Z,0.93
2022-08-26T00:33:25.155Z,0.80
2022-08-26T00:35:53.434Z,0.90
2022-08-26T00:38:23.011Z,1.27
2022-08-26T00:40:52.460Z,2.05
2022-08-26T00:43:21.466Z,1.10
2022-08-26T00:45:53.199Z,0.63
2022-08-26T00:48:24.343Z,0.90
2022-08-26T00:50:55.797Z,1.45
2022-08-26T00:53:26.296Z,0.88
2022-08-26T00:55:59.516Z,0.60
2022-08-26T00:58:48.523Z,0.70
2022-08-26T01:01:17.983Z,0.70
2022-08-26T01:03:48.208Z,1.10
2022-08-26T01:06:16.516Z,0.73
2022-08-26T01:08:45.555Z,1.00
2022-08-26T01:11:14.647Z,0.93
2022-08-26T01:13:44.802Z,0.82
2022-08-26T01:16:16.025Z,1.20
2022-08-26T01:18:48.411Z,1.10
2022-08-26T01:21:23.062Z,1.05
2022-08-26T01:23:57.395Z,0.80
2022-08-26T01:26:27.280Z,2.05
2022-08-26T01:28:56.611Z,1.00
2022-08-26T01:31:26.235Z,1.08
2022-08-26T01:33:56.744Z,1.15
2022-08-26T01:36:26.135Z,1.00
2022-08-26T01:38:56.134Z,1.17
2022-08-26T01:41:27.280Z,1.15
2022-08-26T01:43:58.509Z,1.00
2022-08-26T01:46:27.997Z,0.80
2022-08-26T01:48:57.159Z,1.30
2022-08-26T01:51:27.386Z,1.30
2022-08-26T01:53:57.309Z,1.13
2022-08-26T01:56:33.142Z,1.00
2022-08-26T01:59:02.741Z,1.05
2022-08-26T02:01:31.144Z,0.80
2022-08-26T02:04:03.114Z,1.20
2022-08-26T02:06:31.870Z,1.17
2022-08-26T02:09:03.780Z,0.60
2022-08-26T02:11:32.690Z,0.93
2022-08-26T02:14:02.837Z,0.90
2022-08-26T02:16:35.861Z,0.90
2022-08-26T02:19:07.291Z,0.93
2022-08-26T02:21:45.935Z,0.98
2022-08-26T02:24:22.731Z,0.85
2022-08-26T02:26:51.880Z,0.75
2022-08-26T02:29:23.762Z,1.05
2022-08-26T02:31:52.167Z,0.80
2022-08-26T02:34:22.176Z,1.02
2022-08-26T02:36:50.895Z,0.85
2022-08-26T02:39:22.349Z,1.02
2022-08-26T02:41:51.122Z,0.80
2022-08-26T02:44:19.477Z,1.20
2022-08-26T02:46:48.145Z,1.02
2022-08-26T02:49:17.731Z,0.90
2022-08-26T02:51:46.335Z,0.70
2022-08-26T02:54:15.231Z,0.95
2022-08-26T02:56:45.657Z,0.73
2022-08-26T02:59:14.131Z,0.80
2022-08-26T03:01:42.892Z,0.85
2022-08-26T03:04:12.491Z,0.70
2022-08-26T03:06:41.630Z,0.82
2022-08-26T03:09:10.004Z,0.93
2022-08-26T03:11:48.387Z,0.60
2022-08-26T03:14:17.520Z,0.77
2022-08-26T03:16:48.425Z,0.70
2022-08-26T03:19:17.659Z,0.50
2022-08-26T03:21:47.464Z,1.00
2022-08-26T03:24:17.616Z,1.13
2022-08-26T03:26:52.160Z,0.75
2022-08-26T03:29:40.450Z,0.70
2022-08-26T03:32:09.347Z,0.52
2022-08-26T03:34:39.233Z,0.63
2022-08-26T03:37:07.759Z,0.82
2022-08-26T03:39:36.924Z,0.80
2022-08-26T03:42:06.713Z,0.47
2022-08-26T03:44:37.746Z,0.80
2022-08-26T03:47:10.348Z,0.60
2022-08-26T03:49:38.621Z,0.98
2022-08-26T03:52:07.661Z,0.82
2022-08-26T03:54:36.180Z,0.90
2022-08-26T03:57:04.582Z,0.90
2022-08-26T03:59:33.399Z,0.70
2022-08-26T04:02:03.299Z,1.00
2022-08-26T04:04:37.857Z,0.82
2022-08-26T04:07:06.465Z,1.00
2022-08-26T04:09:36.459Z,1.48
2022-08-26T04:12:05.218Z,0.80
2022-08-26T04:14:35.328Z,1.05
2022-08-26T04:17:07.603Z,1.00
2022-08-26T04:19:35.868Z,1.00
2022-08-26T04:22:04.111Z,1.02
2022-08-26T04:24:33.321Z,1.15
2022-08-26T04:27:03.374Z,1.48
2022-08-26T04:29:31.721Z,1.45
2022-08-26T04:32:02.190Z,1.20
2022-08-26T04:34:32.778Z,1.40
2022-08-26T04:37:02.446Z,1.08
2022-08-26T04:39:30.729Z,1.13
2022-08-26T04:42:00.444Z,0.90
2022-08-26T04:44:31.028Z,1.10
2022-08-26T04:46:59.547Z,0.70
2022-08-26T04:49:28.076Z,0.93
2022-08-26T04:52:05.768Z,1.45
2022-08-26T04:54:34.218Z,0.80
2022-08-26T04:57:02.625Z,0.95
2022-08-26T04:59:30.916Z,0.80
2022-08-26T05:02:01.538Z,0.80
2022-08-26T05:04:30.215Z,1.05
2022-08-26T05:07:02.896Z,0.95
2022-08-26T05:09:32.744Z,0.85
2022-08-26T05:12:01.037Z,1.17
2022-08-26T05:14:29.391Z,1.02
2022-08-26T05:16:57.633Z,0.90
2022-08-26T05:19:27.862Z,0.70
2022-08-26T05:21:56.456Z,0.65
2022-08-26T05:24:25.329Z,0.70
2022-08-26T05:26:56.548Z,0.88
2022-08-26T05:29:25.073Z,1.20
2022-08-26T05:31:53.979Z,0.55
2022-08-26T05:34:24.332Z,0.80
2022-08-26T05:36:58.536Z,0.90
2022-08-26T05:39:26.827Z,0.70
2022-08-26T05:41:56.427Z,1.15
2022-08-26T05:44:24.781Z,0.93
2022-08-26T05:46:53.137Z,1.00
2022-08-26T05:49:22.517Z,0.80
2022-08-26T05:51:54.802Z,0.70
2022-08-26T05:54:23.036Z,0.60
2022-08-26T05:56:51.888Z,0.77
2022-08-26T05:59:24.664Z,0.70
2022-08-26T06:01:54.602Z,0.63
2022-08-26T06:04:24.812Z,0.65
2022-08-26T06:06:55.317Z,0.82
2022-08-26T06:09:23.868Z,0.77
2022-08-26T06:11:52.479Z,0.80
2022-08-26T06:14:23.830Z,0.90
2022-08-26T06:16:52.121Z,0.73
2022-08-26T06:19:21.650Z,0.60
2022-08-26T06:21:54.054Z,1.00
2022-08-26T06:24:41.140Z,0.77
2022-08-26T06:27:13.704Z,0.68
2022-08-26T06:29:43.555Z,0.85
2022-08-26T06:32:11.908Z,0.50
2022-08-26T06:34:40.361Z,0.70
2022-08-26T06:37:08.879Z,0.70
2022-08-26T06:39:41.054Z,0.70
2022-08-26T06:42:10.929Z,0.60
2022-08-26T06:44:41.657Z,0.75
2022-08-26T06:47:14.413Z,0.65
2022-08-26T06:49:44.345Z,0.68
2022-08-26T06:52:12.716Z,0.60
2022-08-26T06:54:43.170Z,0.60
2022-08-26T06:57:12.871Z,0.60
2022-08-26T06:59:42.633Z,0.60
2022-08-26T07:02:13.550Z,0.60
2022-08-26T07:04:44.448Z,0.70
2022-08-26T07:07:16.596Z,0.60
2022-08-26T07:09:45.973Z,0.70
2022-08-26T07:12:14.336Z,0.77
2022-08-26T07:14:43.850Z,0.80
2022-08-26T07:17:16.595Z,0.75
2022-08-26T07:19:46.214Z,0.85
2022-08-26T07:22:14.545Z,0.60
2022-08-26T07:24:42.808Z,0.70
2022-08-26T07:27:13.520Z,0.70
2022-08-26T07:29:42.525Z,0.70
2022-08-26T07:32:11.540Z,0.80
2022-08-26T07:34:40.241Z,0.40
2022-08-26T07:37:11.816Z,0.60
2022-08-26T07:39:41.642Z,0.40
2022-08-26T07:42:13.141Z,0.80
2022-08-26T07:44:42.300Z,0.40
2022-08-26T07:47:25.697Z,0.60
2022-08-26T07:49:54.737Z,0.80
2022-08-26T07:52:27.030Z,0.50
2022-08-26T07:54:55.657Z,0.85
2022-08-26T07:57:24.229Z,0.60
2022-08-26T07:59:53.972Z,0.70
2022-08-26T08:02:23.418Z,0.68
2022-08-26T08:04:52.332Z,0.52
2022-08-26T08:07:20.688Z,0.80
2022-08-26T08:09:55.597Z,0.70
2022-08-26T08:12:24.643Z,0.70
2022-08-26T08:14:53.218Z,0.35
2022-08-26T08:17:21.508Z,0.70
2022-08-26T08:19:49.732Z,0.80
2022-08-26T08:22:19.974Z,0.77
2022-08-26T08:24:53.104Z,0.68
2022-08-26T08:27:24.137Z,0.47
2022-08-26T08:29:54.314Z,0.70
2022-08-26T08:32:23.959Z,0.68
2022-08-26T08:34:52.959Z,0.40
2022-08-26T08:37:21.287Z,0.77
2022-08-26T08:39:50.135Z,0.60
2022-08-26T08:42:33.487Z,0.60
2022-08-26T08:45:05.577Z,0.47
2022-08-26T08:47:36.110Z,0.88
2022-08-26T08:50:08.509Z,0.52
2022-08-26T08:52:37.963Z,0.75
2022-08-26T08:55:11.157Z,0.50
2022-08-26T08:57:46.017Z,0.80
2022-08-26T09:00:18.017Z,1.13
2022-08-26T09:02:51.889Z,0.80
2022-08-26T09:05:22.426Z,0.68
2022-08-26T09:07:52.190Z,0.90
2022-08-26T09:10:30.897Z,0.85
2022-08-26T09:12:59.572Z,1.00
2022-08-26T09:15:36.279Z,1.25
2022-08-26T09:18:10.889Z,1.00
2022-08-26T09:20:45.692Z,0.85
2022-08-26T09:23:14.311Z,0.82
2022-08-26T09:25:50.260Z,0.95
2022-08-26T09:28:20.185Z,1.13
2022-08-26T09:31:00.599Z,1.13
2022-08-26T09:33:30.191Z,1.25
2022-08-26T09:36:13.743Z,1.35
2022-08-26T09:38:42.772Z,1.00
2022-08-26T09:41:21.998Z,1.10
2022-08-26T09:44:09.290Z,1.30
2022-08-26T09:46:47.754Z,1.10
2022-08-26T09:49:25.199Z,1.00
2022-08-26T09:52:05.169Z,1.00
2022-08-26T09:54:35.210Z,0.75
2022-08-26T09:57:20.251Z,0.95
2022-08-26T09:59:49.345Z,1.13
2022-08-26T10:02:23.624Z,1.00
2022-08-26T10:04:54.345Z,1.25
2022-08-26T10:07:35.875Z,1.30
2022-08-26T10:10:05.847Z,1.30
2022-08-26T10:12:36.445Z,1.08
2022-08-26T10:15:10.097Z,1.20
2022-08-26T10:17:42.629Z,0.80
2022-08-26T10:20:23.315Z,1.23
2022-08-26T10:22:55.249Z,1.13
2022-08-26T10:25:26.255Z,0.90
2022-08-26T10:28:00.041Z,1.00
2022-08-26T10:30:32.643Z,1.02
2022-08-26T10:33:05.298Z,1.02
2022-08-26T10:35:35.233Z,1.13
2022-08-26T10:38:04.697Z,1.00
2022-08-26T10:40:39.358Z,1.05
2022-08-26T10:43:11.705Z,1.15
2022-08-26T10:45:41.146Z,1.92
2022-08-26T10:48:13.419Z,0.88
2022-08-26T10:50:42.961Z,1.13
2022-08-26T10:53:16.093Z,1.20
2022-08-26T10:55:47.886Z,1.38
2022-08-26T10:58:27.560Z,0.95
2022-08-26T11:01:22.683Z,0.63
2022-08-26T11:03:58.890Z,0.90
2022-08-26T11:06:28.828Z,1.20
2022-08-26T11:08:58.230Z,1.05
2022-08-26T11:11:45.340Z,1.20
2022-08-26T11:14:32.212Z,1.00
2022-08-26T11:17:11.712Z,1.27
2022-08-26T11:20:02.211Z,0.98
2022-08-26T11:22:33.024Z,0.98
2022-08-26T11:25:06.504Z,1.00
2022-08-26T11:28:03.451Z,0.82
2022-08-26T11:30:56.931Z,1.15
2022-08-26T11:33:59.582Z,0.98
2022-08-26T11:36:38.508Z,0.77
2022-08-26T11:39:16.552Z,0.93
2022-08-26T11:41:45.542Z,1.13
2022-08-26T11:44:18.083Z,0.55
2022-08-26T11:46:53.919Z,2.15
2022-08-26T11:49:22.739Z,1.20
2022-08-26T11:51:52.519Z,1.02
2022-08-26T11:54:30.553Z,0.93
2022-08-26T11:57:09.362Z,1.25
2022-08-26T11:59:40.909Z,1.17
2022-08-26T12:02:14.778Z,1.23
2022-08-26T12:04:45.244Z,0.93
2022-08-26T12:07:15.807Z,1.13
2022-08-26T12:09:54.657Z,0.77
2022-08-26T12:12:26.433Z,0.90
2022-08-26T12:15:10.089Z,1.05
2022-08-26T12:17:39.962Z,1.23
2022-08-26T12:20:19.223Z,0.80
2022-08-26T12:22:49.113Z,1.25
2022-08-26T12:25:24.618Z,1.00
2022-08-26T12:27:54.055Z,1.08
2022-08-26T12:30:24.310Z,1.10
2022-08-26T12:32:58.770Z,1.15
2022-08-26T12:35:29.412Z,1.00
2022-08-26T12:37:59.428Z,1.25
2022-08-26T12:40:36.134Z,1.30
2022-08-26T12:43:05.726Z,1.30
2022-08-26T12:45:35.392Z,2.03
2022-08-26T12:48:08.071Z,1.20
2022-08-26T12:50:38.332Z,0.90
2022-08-26T12:53:23.868Z,1.48
2022-08-26T12:55:53.948Z,1.73
2022-08-26T12:58:24.173Z,0.73
2022-08-26T13:00:53.368Z,1.30
2022-08-26T13:03:43.465Z,1.15
2022-08-26T13:06:27.834Z,1.05
2022-08-26T13:08:58.501Z,1.30
2022-08-26T13:11:28.313Z,1.00
2022-08-26T13:13:58.162Z,1.17
2022-08-26T13:16:27.530Z,0.90
2022-08-26T13:18:56.888Z,0.93
2022-08-26T13:21:26.325Z,0.98
2022-08-26T13:23:55.553Z,0.93
2022-08-26T13:26:25.595Z,0.82
2022-08-26T13:29:01.749Z,1.20
2022-08-26T13:31:31.645Z,0.90
2022-08-26T13:34:00.001Z,1.30
2022-08-26T13:36:29.115Z,1.15
2022-08-26T13:38:57.521Z,0.85
2022-08-26T13:41:29.014Z,1.08
2022-08-26T13:43:58.870Z,1.30
2022-08-26T13:46:28.143Z,0.90
2022-08-26T13:48:56.870Z,0.88
2022-08-26T13:51:25.829Z,1.10
2022-08-26T13:53:54.285Z,1.08
2022-08-26T13:56:23.288Z,1.33
2022-08-26T13:58:53.042Z,1.10
2022-08-26T14:01:21.869Z,1.00
2022-08-26T14:03:50.430Z,1.08
2022-08-26T14:06:18.988Z,1.25
2022-08-26T14:08:48.252Z,0.90
2022-08-26T14:11:16.711Z,1.00
2022-08-26T14:13:45.386Z,0.95
2022-08-26T14:16:17.343Z,1.10
2022-08-26T14:18:50.123Z,1.25
2022-08-26T14:21:19.172Z,1.05
2022-08-26T14:23:47.533Z,0.88
2022-08-26T14:26:28.361Z,1.00
2022-08-26T14:28:58.094Z,1.65
2022-08-26T14:31:29.248Z,1.27
2022-08-26T14:33:59.371Z,1.00
2022-08-26T14:36:32.013Z,1.17
2022-08-26T14:39:02.031Z,1.00
2022-08-26T14:41:30.727Z,1.20
2022-08-26T14:44:01.612Z,1.15
2022-08-26T14:46:32.261Z,0.98
2022-08-26T14:49:01.471Z,0.82
2022-08-26T14:51:30.776Z,1.20
2022-08-26T14:54:14.296Z,1.33
2022-08-26T14:56:45.567Z,1.27
2022-08-26T14:59:14.232Z,1.30
2022-08-26T15:01:43.967Z,1.40
2022-08-26T15:04:12.610Z,0.90
2022-08-26T15:06:40.985Z,1.13
2022-08-26T15:09:09.437Z,0.90
2022-08-26T15:11:37.716Z,1.27
2022-08-26T15:14:06.407Z,1.15
2022-08-26T15:16:35.316Z,0.98
2022-08-26T15:19:05.761Z,1.25
2022-08-26T15:21:34.283Z,1.30
2022-08-26T15:24:02.806Z,1.35
2022-08-26T15:26:31.842Z,0.98
2022-08-26T15:29:04.353Z,1.20
2022-08-26T15:31:34.450Z,1.10
2022-08-26T15:34:04.756Z,1.42
2022-08-26T15:36:34.611Z,1.33
2022-08-26T15:39:03.292Z,1.27
2022-08-26T15:41:33.592Z,1.20
2022-08-26T15:44:03.518Z,1.30
2022-08-26T15:46:32.436Z,2.20
2022-08-26T15:49:00.754Z,1.70
2022-08-26T15:51:32.567Z,1.00
2022-08-26T15:54:03.383Z,1.30
2022-08-26T15:56:34.331Z,1.45
2022-08-26T15:59:03.565Z,1.70
2022-08-26T16:01:34.190Z,1.50
2022-08-26T16:04:02.452Z,1.70
2022-08-26T16:06:31.809Z,1.40
2022-08-26T16:09:00.307Z,1.40
2022-08-26T16:11:30.045Z,1.33
2022-08-26T16:13:58.444Z,1.50
2022-08-26T16:16:26.983Z,1.40
2022-08-26T16:18:55.717Z,1.60
2022-08-26T16:21:25.571Z,2.65
2022-08-26T16:23:53.905Z,1.63
2022-08-26T16:26:24.110Z,1.52
2022-08-26T16:28:53.953Z,1.42
2022-08-26T16:31:22.523Z,1.52
2022-08-26T16:33:51.440Z,1.30
2022-08-26T16:36:19.826Z,1.33
2022-08-26T16:38:49.998Z,1.58
2022-08-26T16:41:19.349Z,1.30
2022-08-26T16:43:47.761Z,1.50
2022-08-26T16:46:18.057Z,1.38
2022-08-26T16:48:46.731Z,1.10
2022-08-26T16:51:16.082Z,1.50
2022-08-26T16:53:45.980Z,2.70
2022-08-26T16:56:14.647Z,2.88
2022-08-26T16:58:43.044Z,2.10
2022-08-26T17:01:11.362Z,2.00
2022-08-26T17:03:41.005Z,2.05
2022-08-26T17:06:09.909Z,2.10
2022-08-26T17:08:38.493Z,2.08
2022-08-26T17:11:07.161Z,1.73
2022-08-26T17:13:36.229Z,1.42
2022-08-26T17:16:05.212Z,1.63
2022-08-26T17:18:33.717Z,2.00
2022-08-26T17:21:04.240Z,1.85
2022-08-26T17:23:32.817Z,2.25
2022-08-26T17:26:01.128Z,2.10
2022-08-26T17:28:29.436Z,1.67
2022-08-26T17:30:58.181Z,1.92
2022-08-26T17:33:26.501Z,1.90
2022-08-26T17:35:55.651Z,1.58
2022-08-26T17:38:25.558Z,1.75
2022-08-26T17:40:53.858Z,2.10
2022-08-26T17:43:22.260Z,1.83
2022-08-26T17:45:50.768Z,1.88
2022-08-26T17:48:19.079Z,1.63
2022-08-26T17:50:49.702Z,1.65
2022-08-26T17:53:19.028Z,1.63
2022-08-26T17:55:49.474Z,1.65
2022-08-26T17:58:20.086Z,1.60
2022-08-26T18:00:50.280Z,2.03
2022-08-26T18:03:19.229Z,1.50
2022-08-26T18:05:49.125Z,1.40
2022-08-26T18:08:20.051Z,1.95
2022-08-26T18:10:50.316Z,1.88
2022-08-26T18:13:20.077Z,1.60
2022-08-26T18:15:48.706Z,1.67
2022-08-26T18:18:18.180Z,1.70
2022-08-26T18:20:46.879Z,1.90
2022-08-26T18:23:20.849Z,2.60
2022-08-26T18:25:50.930Z,1.58
2022-08-26T18:28:19.512Z,1.58
2022-08-26T18:30:47.947Z,1.60
2022-08-26T18:33:16.287Z,1.88
2022-08-26T18:35:45.393Z,2.08
2022-08-26T18:38:15.372Z,2.50
2022-08-26T18:40:45.625Z,1.73
2022-08-26T18:43:15.287Z,1.65
2022-08-26T18:45:43.750Z,1.65
2022-08-26T18:48:12.316Z,1.67
2022-08-26T18:50:47.008Z,1.70
2022-08-26T18:53:15.864Z,1.65
2022-08-26T18:55:45.029Z,2.40
2022-08-26T18:58:17.839Z,2.10
2022-08-26T19:00:46.571Z,1.65
2022-08-26T19:03:18.415Z,1.85
2022-08-26T19:05:47.380Z,1.85
2022-08-26T19:08:16.436Z,1.70
2022-08-26T19:10:44.808Z,1.63
2022-08-26T19:13:16.890Z,1.98
2022-08-26T19:15:46.701Z,2.00
2022-08-26T19:18:17.706Z,2.25
2022-08-26T19:20:46.929Z,1.80
2022-08-26T19:23:30.950Z,1.40
2022-08-26T19:26:01.707Z,1.80
2022-08-26T19:28:31.665Z,1.63
2022-08-26T19:31:01.021Z,1.65
2022-08-26T19:33:29.483Z,1.90
2022-08-26T19:36:04.788Z,1.65
2022-08-26T19:38:36.705Z,1.52
2022-08-26T19:41:05.068Z,1.70
2022-08-26T19:43:35.005Z,2.20
2022-08-26T19:46:04.240Z,1.67
2022-08-26T19:48:35.799Z,2.10
2022-08-26T19:51:04.786Z,1.80
2022-08-26T19:53:33.615Z,2.08
2022-08-26T19:56:10.179Z,1.73
2022-08-26T19:58:41.640Z,1.80
2022-08-26T20:01:10.407Z,2.05
2022-08-26T20:03:39.199Z,2.15
2022-08-26T20:06:08.003Z,1.73
2022-08-26T20:08:37.382Z,2.42
2022-08-26T20:11:06.798Z,1.88
2022-08-26T20:13:55.343Z,1.38
2022-08-26T20:16:45.697Z,1.60
2022-08-26T20:19:51.479Z,1.90
2022-08-26T20:22:20.799Z,1.92
2022-08-26T20:24:49.558Z,1.70
2022-08-26T20:27:17.895Z,1.48
2022-08-26T20:29:46.776Z,2.28
2022-08-26T20:32:16.921Z,1.70
2022-08-26T20:34:47.494Z,1.83
2022-08-26T20:37:16.280Z,1.85
2022-08-26T20:39:50.122Z,1.58
2022-08-26T20:42:19.879Z,1.48
2022-08-26T20:44:54.888Z,1.58
2022-08-26T20:47:25.072Z,1.58
2022-08-26T20:49:56.577Z,1.73
2022-08-26T20:52:26.765Z,1.90
2022-08-26T20:54:55.118Z,1.58
2022-08-26T20:57:23.497Z,1.73
2022-08-26T20:59:52.093Z,1.95
2022-08-26T21:02:20.371Z,1.50
2022-08-26T21:04:50.344Z,1.70
2022-08-26T21:07:20.850Z,1.80
2022-08-26T21:09:51.633Z,1.80
2022-08-26T21:12:20.122Z,1.38
2022-08-26T21:14:49.782Z,1.80
2022-08-26T21:17:18.643Z,1.80
2022-08-26T21:19:46.987Z,2.17
2022-08-26T21:22:16.660Z,2.05
2022-08-26T21:24:45.180Z,1.83
2022-08-26T21:27:13.697Z,1.85
2022-08-26T21:29:48.596Z,2.20
2022-08-26T21:32:20.248Z,1.90
2022-08-26T21:34:48.671Z,1.80
2022-08-26T21:37:18.366Z,1.95
2022-08-26T21:40:06.808Z,2.03
2022-08-26T21:42:38.054Z,1.98
2022-08-26T21:45:07.201Z,1.80
2022-08-26T21:47:36.371Z,1.75
2022-08-26T21:50:05.999Z,2.00
2022-08-26T21:52:35.712Z,2.28
2022-08-26T21:55:04.256Z,2.17
2022-08-26T21:57:37.543Z,2.22
2022-08-26T22:00:07.239Z,1.80
2022-08-26T22:02:37.023Z,2.15
2022-08-26T22:05:05.878Z,1.95
2022-08-26T22:07:34.154Z,2.13
2022-08-26T22:10:04.542Z,2.42
2022-08-26T22:12:33.034Z,1.80
2022-08-26T22:15:02.658Z,2.28
2022-08-26T22:17:31.937Z,2.15
2022-08-26T22:20:00.344Z,2.28
2022-08-26T22:22:29.205Z,2.13
2022-08-26T22:24:57.707Z,2.22
2022-08-26T22:27:27.378Z,2.50
2022-08-26T22:29:56.078Z,2.40
2022-08-26T22:32:24.412Z,2.50
2022-08-26T22:34:52.730Z,2.10
2022-08-26T22:37:21.161Z,2.30
2022-08-26T22:39:49.523Z,2.30
2022-08-26T22:42:17.845Z,2.75
2022-08-26T22:44:47.606Z,2.47
2022-08-26T22:47:16.327Z,2.67
2022-08-26T22:49:44.579Z,2.70
2022-08-26T22:52:12.881Z,2.40
2022-08-26T22:54:43.376Z,2.20
2022-08-26T22:57:11.979Z,2.80
2022-08-26T22:59:40.655Z,2.45
2022-08-26T23:02:13.990Z,2.08
2022-08-26T23:04:46.508Z,2.17
2022-08-26T23:07:14.909Z,2.08
2022-08-26T23:09:43.167Z,2.25
2022-08-26T23:12:11.496Z,2.15
2022-08-26T23:14:41.158Z,2.30
2022-08-26T23:17:11.224Z,2.60
2022-08-26T23:19:40.905Z,2.13
2022-08-26T23:22:09.526Z,2.25
2022-08-26T23:24:38.032Z,2.35
2022-08-26T23:27:06.677Z,2.30
2022-08-26T23:29:35.758Z,2.15
2022-08-26T23:32:06.497Z,2.10
2022-08-26T23:34:53.039Z,1.80
2022-08-26T23:37:22.777Z,2.10
2022-08-26T23:39:52.159Z,1.80
2022-08-26T23:42:20.682Z,1.85
2022-08-26T23:44:49.005Z,2.08
2022-08-26T23:47:18.164Z,2.08
2022-08-26T23:49:49.272Z,2.08
2022-08-26T23:52:35.476Z,1.60
2022-08-26T23:55:05.233Z,1.88
2022-08-26T23:57:35.094Z,2.28
